createdAt,value
2022-12-01T00:04:23.262Z,88.19
2022-12-01T00:09:41.344Z,88.20
2022-12-01T00:14:44.079Z,88.47
2022-12-01T00:19:47.258Z,87.98
2022-12-01T00:24:52.392Z,88.00
2022-12-01T00:29:55.145Z,87.98
2022-12-01T00:34:57.966Z,87.90
2022-12-01T00:40:02.395Z,87.92
2022-12-01T00:45:06.135Z,87.99
2022-12-01T00:50:09.666Z,87.99
2022-12-01T00:55:13.795Z,87.95
2022-12-01T01:00:18.177Z,87.83
2022-12-01T01:05:20.991Z,87.89
2022-12-01T01:10:25.164Z,87.79
2022-12-01T01:15:28.213Z,87.82
2022-12-01T01:20:31.018Z,87.74
2022-12-01T01:25:35.312Z,87.95
2022-12-01T01:30:40.380Z,88.07
2022-12-01T01:35:43.198Z,87.82
2022-12-01T01:40:48.407Z,87.93
2022-12-01T01:45:51.408Z,88.09
2022-12-01T01:50:54.271Z,87.96
2022-12-01T01:55:58.811Z,88.12
2022-12-01T02:01:01.755Z,87.75
2022-12-01T02:06:05.916Z,87.95
2022-12-01T02:11:34.464Z,88.05
2022-12-01T02:16:45.442Z,87.95
2022-12-01T02:22:04.107Z,88.18
2022-12-01T02:27:15.031Z,88.13
2022-12-01T02:32:30.470Z,88.08
2022-12-01T02:37:41.915Z,87.97
2022-12-01T02:42:54.186Z,87.95
2022-12-01T02:48:02.947Z,88.12
2022-12-01T02:53:09.124Z,87.85
2022-12-01T02:58:15.455Z,87.77
2022-12-01T03:03:35.932Z,88.10
2022-12-01T03:08:49.104Z,88.26
2022-12-01T03:14:06.567Z,87.76
2022-12-01T03:19:15.485Z,88.16
2022-12-01T03:24:20.516Z,88.18
2022-12-01T03:29:27.828Z,88.05
2022-12-01T03:34:37.885Z,88.23
2022-12-01T03:39:43.936Z,88.17
2022-12-01T03:44:50.011Z,87.92
2022-12-01T03:49:55.665Z,87.93
2022-12-01T03:55:09.110Z,87.88
2022-12-01T04:00:14.528Z,87.64
2022-12-01T04:05:23.857Z,87.75
2022-12-01T04:10:28.455Z,87.73
2022-12-01T04:15:31.251Z,87.31
2022-12-01T04:20:35.475Z,87.33
2022-12-01T04:25:38.313Z,87.33
2022-12-01T04:30:41.048Z,87.11
2022-12-01T04:35:45.195Z,87.27
2022-12-01T04:40:48.044Z,87.28
2022-12-01T04:45:50.947Z,87.55
2022-12-01T04:50:55.042Z,87.66
2022-12-01T04:55:57.874Z,87.40
2022-12-01T05:01:03.057Z,87.20
2022-12-01T05:06:09.384Z,87.36
2022-12-01T05:11:13.499Z,86.55
2022-12-01T05:16:19.133Z,86.82
2022-12-01T05:21:23.345Z,87.16
2022-12-01T05:26:26.198Z,87.01
2022-12-01T05:31:29.114Z,86.63
2022-12-01T05:36:33.742Z,87.04
2022-12-01T05:41:36.515Z,87.00
2022-12-01T05:46:39.291Z,86.09
2022-12-01T05:51:43.589Z,86.52
2022-12-01T05:56:46.409Z,86.67
2022-12-01T06:01:49.214Z,86.55
2022-12-01T06:06:53.432Z,85.78
2022-12-01T06:11:56.225Z,85.93
2022-12-01T06:16:59.002Z,85.61
2022-12-01T06:22:03.545Z,85.61
2022-12-01T06:27:06.447Z,85.46
2022-12-01T06:32:09.293Z,85.46
2022-12-01T06:37:15.468Z,85.66
2022-12-01T06:42:18.255Z,85.65
2022-12-01T06:47:21.070Z,85.76
2022-12-01T06:52:25.185Z,85.84
2022-12-01T06:57:28.064Z,86.27
2022-12-01T07:02:31.153Z,85.65
2022-12-01T07:07:38.269Z,85.31
2022-12-01T07:12:41.419Z,85.68
2022-12-01T07:17:44.170Z,86.00
2022-12-01T07:22:48.269Z,85.81
2022-12-01T07:27:51.074Z,85.77
2022-12-01T07:32:53.941Z,86.10
2022-12-01T07:37:58.085Z,85.66
2022-12-01T07:43:00.896Z,84.78
2022-12-01T07:48:03.773Z,85.15
2022-12-01T07:53:07.910Z,84.41
2022-12-01T07:58:10.703Z,84.57
2022-12-01T08:03:14.318Z,85.09
2022-12-01T08:08:18.777Z,84.18
2022-12-01T08:13:24.038Z,84.17
2022-12-01T08:18:26.835Z,84.31
2022-12-01T08:23:31.023Z,84.88
2022-12-01T08:28:36.534Z,83.94
2022-12-01T08:33:39.494Z,84.20
2022-12-01T08:38:45.875Z,83.09
2022-12-01T08:44:03.986Z,83.77
2022-12-01T08:49:07.569Z,83.99
2022-12-01T08:54:12.909Z,83.66
2022-12-01T08:59:15.743Z,83.41
2022-12-01T09:04:19.077Z,82.99
2022-12-01T09:09:27.181Z,83.45
2022-12-01T09:14:30.106Z,84.48
2022-12-01T09:19:33.270Z,83.38
2022-12-01T09:24:37.583Z,81.56
2022-12-01T09:29:40.320Z,79.52
2022-12-01T09:34:43.142Z,79.36
2022-12-01T09:39:47.459Z,79.98
2022-12-01T09:44:53.840Z,81.74
2022-12-01T09:50:00.619Z,80.56
2022-12-01T09:55:08.032Z,78.86
2022-12-01T10:00:15.820Z,77.28
2022-12-01T10:05:22.024Z,77.95
2022-12-01T10:10:29.976Z,76.73
2022-12-01T10:15:47.235Z,76.92
2022-12-01T10:20:57.847Z,77.47
2022-12-01T10:26:14.056Z,78.25
2022-12-01T10:31:21.383Z,76.98
2022-12-01T10:36:27.402Z,76.62
2022-12-01T10:41:35.376Z,76.47
2022-12-01T10:46:44.532Z,77.11
2022-12-01T10:51:55.570Z,79.49
2022-12-01T10:57:00.506Z,78.58
2022-12-01T11:02:05.235Z,76.52
2022-12-01T11:07:08.332Z,77.04
2022-12-01T11:12:16.535Z,78.41
2022-12-01T11:17:33.434Z,74.86
2022-12-01T11:22:36.404Z,77.25
2022-12-01T11:27:51.623Z,77.16
2022-12-01T11:32:57.117Z,77.04
2022-12-01T11:43:31.327Z,75.88
2022-12-01T11:48:36.244Z,77.25
2022-12-01T11:53:41.047Z,77.41
2022-12-01T11:58:47.579Z,76.21
2022-12-01T12:03:59.558Z,76.99
2022-12-01T12:09:17.002Z,76.20
2022-12-01T12:14:42.779Z,73.13
2022-12-01T12:20:08.131Z,75.35
2022-12-01T12:25:26.232Z,74.51
2022-12-01T12:30:32.949Z,73.76
2022-12-01T12:35:42.603Z,73.16
2022-12-01T12:40:54.305Z,72.67
2022-12-01T12:46:09.188Z,73.60
2022-12-01T12:51:19.235Z,71.63
2022-12-01T12:56:25.525Z,71.26
2022-12-01T13:01:34.749Z,68.92
2022-12-01T13:06:41.689Z,71.36
2022-12-01T13:11:48.579Z,70.57
2022-12-01T13:16:56.489Z,68.77
2022-12-01T13:22:00.983Z,68.52
2022-12-01T13:27:07.725Z,67.51
2022-12-01T13:32:28.705Z,68.75
2022-12-01T13:37:33.861Z,68.78
2022-12-01T13:42:37.509Z,68.55
2022-12-01T13:47:51.739Z,68.27
2022-12-01T13:53:12.040Z,69.69
2022-12-01T13:58:44.024Z,70.31
2022-12-01T14:03:56.937Z,69.75
2022-12-01T14:09:02.509Z,69.72
2022-12-01T14:14:26.424Z,68.46
2022-12-01T14:19:36.888Z,69.25
2022-12-01T14:24:43.449Z,68.96
2022-12-01T14:29:46.255Z,68.23
2022-12-01T14:34:56.984Z,68.35
2022-12-01T14:40:06.675Z,68.72
2022-12-01T14:45:14.539Z,68.72
2022-12-01T14:50:24.993Z,68.82
2022-12-01T14:55:32.383Z,69.33
2022-12-01T15:00:37.601Z,69.02
2022-12-01T15:05:44.445Z,69.49
2022-12-01T15:10:52.492Z,69.62
2022-12-01T15:15:57.302Z,70.28
2022-12-01T15:21:06.853Z,70.43
2022-12-01T15:26:19.860Z,70.80
2022-12-01T15:31:22.807Z,70.77
2022-12-01T15:36:27.179Z,70.96
2022-12-01T15:41:30.920Z,71.53
2022-12-01T15:46:35.247Z,72.21
2022-12-01T15:51:39.636Z,72.73
2022-12-01T15:56:42.790Z,72.83
2022-12-01T16:01:46.117Z,73.18
2022-12-01T16:06:58.023Z,73.29
2022-12-01T16:12:06.203Z,73.29
2022-12-01T16:17:11.071Z,73.56
2022-12-01T16:22:18.415Z,73.32
2022-12-01T16:27:24.988Z,73.34
2022-12-01T16:32:33.400Z,73.15
2022-12-01T16:37:37.619Z,73.68
2022-12-01T16:42:40.714Z,73.09
2022-12-01T16:47:44.486Z,73.38
2022-12-01T16:52:48.640Z,73.65
2022-12-01T16:57:51.438Z,73.48
2022-12-01T17:02:54.389Z,73.13
2022-12-01T17:07:58.688Z,73.19
2022-12-01T17:13:01.542Z,73.11
2022-12-01T17:18:04.462Z,73.04
2022-12-01T17:23:08.732Z,73.45
2022-12-01T17:28:11.529Z,73.44
2022-12-01T17:33:14.595Z,73.82
2022-12-01T17:38:19.528Z,73.78
2022-12-01T17:43:23.437Z,74.02
2022-12-01T17:48:27.205Z,74.05
2022-12-01T17:53:33.094Z,74.36
2022-12-01T17:58:36.812Z,74.45
2022-12-01T18:03:39.604Z,74.37
2022-12-01T18:08:44.014Z,74.25
2022-12-01T18:13:48.896Z,74.46
2022-12-01T18:18:52.205Z,74.30
2022-12-01T18:23:58.075Z,74.19
2022-12-01T18:29:04.837Z,74.33
2022-12-01T18:34:09.021Z,74.60
2022-12-01T18:39:13.259Z,74.74
2022-12-01T18:44:16.094Z,74.79
2022-12-01T18:49:19.086Z,74.89
2022-12-01T18:54:23.255Z,74.89
2022-12-01T18:59:26.874Z,75.01
2022-12-01T19:04:29.768Z,75.08
2022-12-01T19:09:34.159Z,74.97
2022-12-01T19:14:37.119Z,74.90
2022-12-01T19:19:40.016Z,75.15
2022-12-01T19:24:49.909Z,75.17
2022-12-01T19:29:53.919Z,75.11
2022-12-01T19:34:56.981Z,74.79
2022-12-01T19:40:01.067Z,74.78
2022-12-01T19:45:04.517Z,74.73
2022-12-01T19:50:08.592Z,74.74
2022-12-01T19:55:12.773Z,74.63
2022-12-01T20:00:16.227Z,74.44
2022-12-01T20:05:19.306Z,74.40
2022-12-01T20:10:23.502Z,74.39
2022-12-01T20:15:26.322Z,74.11
2022-12-01T20:20:29.155Z,74.01
2022-12-01T20:25:34.187Z,74.17
2022-12-01T20:30:40.928Z,74.38
2022-12-01T20:35:43.752Z,74.92
2022-12-01T20:40:51.035Z,74.82
2022-12-01T20:45:53.931Z,75.12
2022-12-01T20:50:56.862Z,75.11
2022-12-01T20:56:04.522Z,75.28
2022-12-01T21:01:09.514Z,75.60
2022-12-01T21:06:14.096Z,75.69
2022-12-01T21:11:42.353Z,75.82
2022-12-01T21:16:49.146Z,76.04
2022-12-01T21:21:52.147Z,76.04
2022-12-01T21:27:00.339Z,76.44
2022-12-01T21:32:12.428Z,76.41
2022-12-01T21:37:26.319Z,76.98
2022-12-01T21:42:32.823Z,76.76
2022-12-01T21:47:35.851Z,77.10
2022-12-01T21:52:41.430Z,76.92
2022-12-01T21:57:48.111Z,76.97
2022-12-01T22:02:53.225Z,76.78
2022-12-01T22:08:01.716Z,76.54
2022-12-01T22:13:10.739Z,76.89
2022-12-01T22:18:22.658Z,76.83
2022-12-01T22:23:32.800Z,76.74
2022-12-01T22:28:37.164Z,76.60
2022-12-01T22:33:39.896Z,76.64
2022-12-01T22:38:42.652Z,76.29
2022-12-01T22:43:49.349Z,76.23
2022-12-01T22:48:53.756Z,76.13
2022-12-01T22:54:01.003Z,76.45
2022-12-01T22:59:14.091Z,76.14
2022-12-01T23:04:27.683Z,75.96
2022-12-01T23:09:36.520Z,75.66
2022-12-01T23:14:44.289Z,75.97
2022-12-01T23:19:47.326Z,75.96
2022-12-01T23:24:50.429Z,75.74
2022-12-01T23:29:55.171Z,75.83
2022-12-01T23:35:00.326Z,75.77
2022-12-01T23:40:15.864Z,75.91
2022-12-01T23:45:23.655Z,76.10
2022-12-01T23:50:27.720Z,76.36
2022-12-01T23:55:31.951Z,76.30
